createdAt,value
2022-09-28T00:01:14.343Z,10.20
2022-09-28T00:03:42.570Z,10.20
2022-09-28T00:06:13.425Z,10.30
2022-09-28T00:08:41.323Z,10.10
2022-09-28T00:11:13.806Z,10.10
2022-09-28T00:13:42.801Z,10.00
2022-09-28T00:16:15.608Z,10.00
2022-09-28T00:18:44.641Z,9.90
2022-09-28T00:21:18.262Z,9.90
2022-09-28T00:24:04.048Z,9.80
2022-09-28T00:26:33.927Z,9.80
2022-09-28T00:29:03.338Z,9.90
2022-09-28T00:31:34.629Z,9.70
2022-09-28T00:34:04.844Z,9.70
2022-09-28T00:36:34.886Z,9.70
2022-09-28T00:39:06.503Z,9.60
2022-09-28T00:41:35.531Z,9.60
2022-09-28T00:44:44.618Z,9.70
2022-09-28T00:47:49.835Z,9.70
2022-09-28T00:50:25.761Z,9.70
2022-09-28T00:52:56.787Z,9.70
2022-09-28T00:55:32.198Z,9.70
2022-09-28T00:58:04.373Z,9.70
2022-09-28T01:00:32.622Z,9.90
2022-09-28T01:03:02.199Z,9.70
2022-09-28T01:05:30.373Z,9.70
2022-09-28T01:07:58.684Z,9.70
2022-09-28T01:10:26.937Z,9.70
2022-09-28T01:12:55.926Z,9.70
2022-09-28T01:15:26.502Z,9.60
2022-09-28T01:18:09.581Z,9.60
2022-09-28T01:20:55.802Z,9.50
2022-09-28T01:23:44.068Z,9.60
2022-09-28T01:26:39.951Z,9.60
2022-09-28T01:29:17.548Z,9.60
2022-09-28T01:31:49.785Z,9.60
2022-09-28T01:34:22.216Z,9.60
2022-09-28T01:36:54.755Z,9.70
2022-09-28T01:39:30.140Z,9.70
2022-09-28T01:42:05.624Z,9.70
2022-09-28T01:44:39.909Z,9.70
2022-09-28T01:47:11.348Z,9.70
2022-09-28T01:49:43.693Z,9.60
2022-09-28T01:52:17.156Z,9.60
2022-09-28T01:54:50.383Z,9.50
2022-09-28T01:57:24.728Z,9.50
2022-09-28T01:59:59.847Z,9.50
2022-09-28T02:02:32.872Z,9.50
2022-09-28T02:05:06.083Z,9.50
2022-09-28T02:07:39.482Z,9.50
2022-09-28T02:10:13.149Z,9.50
2022-09-28T02:12:47.557Z,9.40
2022-09-28T02:15:21.136Z,9.40
2022-09-28T02:17:49.783Z,9.30
2022-09-28T02:20:18.288Z,9.30
2022-09-28T02:22:50.802Z,9.40
2022-09-28T02:25:24.810Z,9.40
2022-09-28T02:28:00.265Z,9.40
2022-09-28T02:30:28.664Z,9.40
2022-09-28T02:33:03.348Z,9.40
2022-09-28T02:35:31.256Z,9.40
2022-09-28T02:37:59.148Z,9.40
2022-09-28T02:40:32.278Z,9.40
2022-09-28T02:43:10.396Z,9.40
2022-09-28T02:45:49.481Z,9.40
2022-09-28T02:48:43.022Z,9.40
2022-09-28T02:51:21.461Z,9.50
2022-09-28T02:54:04.626Z,9.30
2022-09-28T02:56:49.026Z,9.30
2022-09-28T02:59:31.227Z,9.20
2022-09-28T03:02:06.754Z,9.20
2022-09-28T03:04:44.396Z,9.10
2022-09-28T03:07:22.402Z,9.10
2022-09-28T03:10:00.289Z,9.20
2022-09-28T03:12:29.989Z,9.30
2022-09-28T03:15:11.294Z,9.30
2022-09-28T03:17:39.657Z,9.30
2022-09-28T03:20:08.399Z,9.30
2022-09-28T03:22:36.288Z,9.30
2022-09-28T03:25:04.455Z,9.30
2022-09-28T03:27:32.347Z,9.30
2022-09-28T03:30:00.383Z,9.30
2022-09-28T03:32:29.557Z,9.30
2022-09-28T03:34:57.459Z,9.30
2022-09-28T03:37:25.403Z,9.20
2022-09-28T03:39:53.263Z,9.20
2022-09-28T03:42:21.190Z,9.20
2022-09-28T03:44:49.122Z,9.10
2022-09-28T03:47:17.920Z,9.00
2022-09-28T03:49:47.255Z,9.00
2022-09-28T03:52:16.084Z,9.10
2022-09-28T03:54:48.939Z,9.10
2022-09-28T03:57:17.189Z,9.20
2022-09-28T03:59:45.033Z,9.10
2022-09-28T04:02:13.017Z,9.00
2022-09-28T04:04:40.902Z,9.00
2022-09-28T04:07:10.089Z,8.90
2022-09-28T04:09:37.985Z,8.80
2022-09-28T04:12:05.961Z,8.80
2022-09-28T04:14:33.974Z,8.70
2022-09-28T04:17:01.832Z,8.80
2022-09-28T04:19:29.660Z,8.80
2022-09-28T04:21:57.584Z,8.90
2022-09-28T04:24:26.789Z,8.70
2022-09-28T04:27:15.489Z,8.60
2022-09-28T04:29:43.874Z,8.50
2022-09-28T04:32:12.532Z,8.40
2022-09-28T04:34:43.919Z,8.30
2022-09-28T04:37:12.623Z,8.20
2022-09-28T04:39:45.097Z,8.10
2022-09-28T04:42:16.211Z,7.90
2022-09-28T04:44:44.150Z,7.80
2022-09-28T04:47:12.037Z,7.80
2022-09-28T04:49:39.886Z,7.70
2022-09-28T04:52:08.197Z,7.80
2022-09-28T04:54:36.576Z,7.80
2022-09-28T04:57:06.170Z,7.80
2022-09-28T04:59:34.126Z,7.80
2022-09-28T05:02:02.029Z,7.70
2022-09-28T05:04:30.519Z,7.70
2022-09-28T05:06:58.557Z,7.50
2022-09-28T05:09:26.477Z,7.40
2022-09-28T05:11:54.302Z,7.40
2022-09-28T05:14:24.374Z,7.30
2022-09-28T05:16:52.438Z,7.30
2022-09-28T05:19:20.344Z,7.50
2022-09-28T05:21:49.175Z,7.50
2022-09-28T05:24:17.048Z,7.50
2022-09-28T05:26:44.916Z,7.60
2022-09-28T05:29:13.079Z,7.60
2022-09-28T05:31:42.405Z,7.50
2022-09-28T05:34:10.274Z,7.50
2022-09-28T05:36:39.129Z,7.60
2022-09-28T05:39:07.271Z,7.60
2022-09-28T05:41:35.153Z,7.50
2022-09-28T05:44:03.010Z,7.40
2022-09-28T05:46:31.191Z,7.30
2022-09-28T05:49:00.945Z,7.20
2022-09-28T05:51:29.001Z,7.20
2022-09-28T05:54:00.664Z,7.20
2022-09-28T05:56:31.414Z,7.10
2022-09-28T05:58:59.580Z,6.90
2022-09-28T06:01:27.531Z,6.80
2022-09-28T06:03:55.377Z,6.70
2022-09-28T06:06:24.673Z,6.80
2022-09-28T06:08:52.507Z,6.80
2022-09-28T06:11:20.355Z,6.70
2022-09-28T06:13:48.259Z,6.70
2022-09-28T06:16:17.442Z,6.70
2022-09-28T06:18:45.371Z,6.80
2022-09-28T06:21:13.735Z,7.00
2022-09-28T06:23:48.167Z,7.40
2022-09-28T06:26:17.528Z,8.00
2022-09-28T06:28:45.443Z,8.70
2022-09-28T06:31:13.390Z,9.50
2022-09-28T06:33:42.088Z,10.00
2022-09-28T06:36:10.490Z,10.50
2022-09-28T06:38:38.435Z,11.10
2022-09-28T06:41:07.711Z,11.60
2022-09-28T06:43:39.505Z,11.90
2022-09-28T06:46:09.801Z,12.10
2022-09-28T06:48:38.068Z,12.10
2022-09-28T06:51:06.291Z,12.30
2022-09-28T06:53:34.171Z,12.50
2022-09-28T06:56:02.567Z,12.70
2022-09-28T06:58:32.272Z,12.30
2022-09-28T07:01:00.441Z,11.40
2022-09-28T07:03:28.771Z,10.60
2022-09-28T07:05:57.472Z,10.20
2022-09-28T07:08:28.664Z,9.90
2022-09-28T07:10:57.148Z,9.70
2022-09-28T07:16:15.978Z,9.60
2022-09-28T07:18:43.870Z,9.60
2022-09-28T07:21:23.945Z,9.70
2022-09-28T07:23:54.859Z,9.90
2022-09-28T07:26:24.605Z,10.40
2022-09-28T07:28:54.452Z,11.30
2022-09-28T07:31:25.405Z,12.30
2022-09-28T07:33:54.007Z,12.50
2022-09-28T07:36:22.728Z,12.50
2022-09-28T07:38:51.891Z,12.00
2022-09-28T07:41:26.954Z,12.40
2022-09-28T07:43:55.441Z,12.30
2022-09-28T07:46:24.860Z,11.90
2022-09-28T07:48:52.779Z,11.40
2022-09-28T07:51:21.323Z,11.10
2022-09-28T07:53:49.251Z,10.90
2022-09-28T07:56:20.412Z,11.00
2022-09-28T07:58:48.977Z,11.10
2022-09-28T08:01:17.666Z,11.20
2022-09-28T08:03:48.077Z,11.50
2022-09-28T08:06:17.624Z,11.70
2022-09-28T08:08:46.027Z,12.10
2022-09-28T08:11:16.636Z,12.20
2022-09-28T08:13:45.761Z,12.30
2022-09-28T08:16:14.040Z,12.40
2022-09-28T08:18:42.103Z,12.50
2022-09-28T08:21:30.178Z,12.50
2022-09-28T08:23:58.097Z,12.90
2022-09-28T08:26:26.159Z,13.40
2022-09-28T08:28:54.044Z,14.00
2022-09-28T08:31:21.997Z,14.70
2022-09-28T08:33:53.702Z,14.90
2022-09-28T08:36:23.952Z,14.80
2022-09-28T08:38:51.918Z,14.90
2022-09-28T08:41:32.318Z,15.00
2022-09-28T08:44:17.067Z,14.90
2022-09-28T08:46:48.175Z,14.60
2022-09-28T08:49:26.285Z,15.60
2022-09-28T08:52:02.132Z,16.60
2022-09-28T08:54:41.103Z,16.90
2022-09-28T08:57:17.581Z,16.80
2022-09-28T08:59:51.535Z,17.60
2022-09-28T09:02:25.681Z,17.30
2022-09-28T09:04:54.409Z,16.80
2022-09-28T09:07:51.876Z,16.10
2022-09-28T09:10:46.627Z,15.50
2022-09-28T09:13:31.939Z,14.80
2022-09-28T09:16:12.940Z,14.30
2022-09-28T09:18:47.872Z,14.30
2022-09-28T09:21:26.707Z,15.30
2022-09-28T09:23:58.624Z,16.20
2022-09-28T09:26:36.340Z,16.80
2022-09-28T09:29:28.292Z,16.10
2022-09-28T09:32:21.757Z,15.50
2022-09-28T09:35:06.366Z,14.70
2022-09-28T09:38:00.211Z,14.60
2022-09-28T09:40:50.245Z,14.40
2022-09-28T09:43:53.596Z,14.50
2022-09-28T09:46:30.943Z,14.90
2022-09-28T09:49:06.100Z,15.10
2022-09-28T09:51:42.014Z,14.90
2022-09-28T09:54:18.019Z,14.50
2022-09-28T09:56:55.076Z,14.30
2022-09-28T09:59:27.312Z,14.50
2022-09-28T10:01:57.204Z,15.10
2022-09-28T10:04:29.383Z,16.20
2022-09-28T10:07:02.435Z,16.60
2022-09-28T10:09:35.867Z,17.00
2022-09-28T10:12:05.640Z,18.30
2022-09-28T10:14:33.955Z,18.10
2022-09-28T10:17:04.642Z,17.60
2022-09-28T10:19:34.956Z,16.70
2022-09-28T10:22:07.744Z,16.40
2022-09-28T10:24:40.474Z,15.90
2022-09-28T10:27:15.059Z,15.30
2022-09-28T10:29:52.291Z,14.90
2022-09-28T10:32:24.037Z,14.60
2022-09-28T10:34:55.169Z,14.40
2022-09-28T10:37:24.376Z,14.40
2022-09-28T10:39:54.774Z,14.60
2022-09-28T10:42:28.333Z,15.70
2022-09-28T10:45:01.566Z,17.80
2022-09-28T10:47:32.678Z,20.00
2022-09-28T10:50:01.343Z,22.30
2022-09-28T10:52:33.046Z,24.20
2022-09-28T10:55:01.395Z,25.10
2022-09-28T10:57:35.164Z,24.10
2022-09-28T11:00:04.033Z,22.20
2022-09-28T11:02:36.480Z,21.90
2022-09-28T11:05:06.831Z,22.60
2022-09-28T11:07:46.277Z,23.00
2022-09-28T11:10:22.012Z,23.40
2022-09-28T11:12:54.205Z,22.70
2022-09-28T11:15:25.817Z,21.00
2022-09-28T11:17:53.874Z,19.20
2022-09-28T11:20:34.757Z,17.80
2022-09-28T11:23:19.112Z,18.20
2022-09-28T11:25:58.281Z,19.60
2022-09-28T11:28:32.751Z,19.80
2022-09-28T11:31:02.298Z,20.20
2022-09-28T11:33:33.333Z,21.20
2022-09-28T11:36:32.026Z,22.40
2022-09-28T11:39:09.367Z,23.60
2022-09-28T11:41:49.820Z,22.70
2022-09-28T11:44:41.460Z,22.40
2022-09-28T11:47:23.391Z,22.30
2022-09-28T11:49:56.154Z,22.20
2022-09-28T11:52:30.274Z,22.60
2022-09-28T11:55:04.245Z,22.00
2022-09-28T11:57:37.713Z,21.00
2022-09-28T12:00:13.376Z,20.40
2022-09-28T12:02:48.107Z,20.50
2022-09-28T12:05:23.121Z,19.50
2022-09-28T12:07:55.621Z,20.00
2022-09-28T12:10:33.109Z,21.40
2022-09-28T12:13:05.102Z,22.20
2022-09-28T12:16:10.333Z,22.40
2022-09-28T12:18:41.258Z,22.70
2022-09-28T12:21:20.031Z,22.60
2022-09-28T12:23:49.648Z,22.50
2022-09-28T12:26:29.231Z,23.50
2022-09-28T12:29:00.292Z,23.70
2022-09-28T12:31:39.048Z,24.30
2022-09-28T12:34:07.049Z,24.10
2022-09-28T12:36:47.582Z,23.70
2022-09-28T12:39:57.037Z,23.80
2022-09-28T12:42:43.398Z,23.30
2022-09-28T12:45:42.920Z,21.80
2022-09-28T12:48:32.102Z,21.10
2022-09-28T12:51:10.690Z,21.50
2022-09-28T12:54:01.830Z,22.50
2022-09-28T12:56:40.063Z,22.90
2022-09-28T12:59:20.064Z,21.90
2022-09-28T13:02:22.674Z,21.50
2022-09-28T13:05:10.047Z,20.80
2022-09-28T13:07:50.003Z,20.30
2022-09-28T13:10:25.793Z,20.40
2022-09-28T13:13:09.581Z,20.90
2022-09-28T13:15:43.953Z,21.40
2022-09-28T13:18:22.138Z,22.00
2022-09-28T13:21:05.105Z,22.20
2022-09-28T13:23:38.368Z,20.90
2022-09-28T13:26:16.143Z,19.60
2022-09-28T13:28:46.942Z,18.90
2022-09-28T13:31:21.090Z,18.30
2022-09-28T13:33:51.094Z,18.00
2022-09-28T13:36:47.810Z,17.90
2022-09-28T13:39:39.390Z,17.70
2022-09-28T13:42:10.366Z,17.20
2022-09-28T13:45:01.360Z,16.90
2022-09-28T13:47:49.437Z,16.60
2022-09-28T13:50:28.689Z,16.40
2022-09-28T13:53:06.994Z,16.30
2022-09-28T13:55:43.096Z,16.30
2022-09-28T13:58:23.806Z,16.70
2022-09-28T14:01:02.076Z,17.00
2022-09-28T14:03:44.593Z,16.90
2022-09-28T14:06:34.035Z,16.70
2022-09-28T14:09:24.932Z,16.50
2022-09-28T14:11:58.231Z,16.30
2022-09-28T14:14:32.371Z,16.20
2022-09-28T14:17:50.469Z,16.00
2022-09-28T14:20:23.388Z,15.80
2022-09-28T14:23:15.360Z,15.90
2022-09-28T14:26:06.651Z,15.90
2022-09-28T14:28:50.903Z,16.30
2022-09-28T14:31:26.267Z,16.60
2022-09-28T14:33:58.971Z,16.70
2022-09-28T14:36:47.442Z,16.50
2022-09-28T14:39:44.754Z,16.30
2022-09-28T14:42:17.616Z,16.00
2022-09-28T14:45:35.748Z,15.80
2022-09-28T14:49:17.927Z,15.80
2022-09-28T14:52:05.053Z,15.60
2022-09-28T14:54:47.815Z,15.30
2022-09-28T14:57:23.536Z,15.10
2022-09-28T14:59:51.672Z,15.00
2022-09-28T15:02:28.948Z,15.20
2022-09-28T15:05:00.915Z,15.60
2022-09-28T15:07:34.263Z,16.10
2022-09-28T15:10:03.583Z,16.30
2022-09-28T15:12:33.411Z,16.10
2022-09-28T15:15:03.385Z,15.70
2022-09-28T15:17:38.521Z,15.30
2022-09-28T15:20:23.303Z,15.00
2022-09-28T15:22:57.213Z,14.60
2022-09-28T15:25:26.758Z,14.20
2022-09-28T15:27:58.084Z,13.90
2022-09-28T15:30:28.899Z,13.80
2022-09-28T15:33:18.338Z,13.70
2022-09-28T15:35:49.971Z,13.60
2022-09-28T15:38:18.406Z,13.40
2022-09-28T15:40:47.612Z,13.10
2022-09-28T15:43:27.136Z,12.60
2022-09-28T15:46:02.587Z,12.30
2022-09-28T15:48:32.545Z,12.30
2022-09-28T15:51:06.135Z,13.00
2022-09-28T15:53:34.599Z,13.60
2022-09-28T15:56:10.066Z,14.00
2022-09-28T15:58:41.586Z,14.00
2022-09-28T16:01:27.041Z,13.90
2022-09-28T16:03:55.171Z,13.80
2022-09-28T16:06:23.226Z,13.80
2022-09-28T16:08:51.198Z,13.80
2022-09-28T16:11:23.912Z,14.00
2022-09-28T16:14:19.300Z,14.50
2022-09-28T16:16:49.533Z,14.60
2022-09-28T16:19:24.197Z,14.60
2022-09-28T16:21:55.736Z,14.50
2022-09-28T16:24:26.075Z,14.40
2022-09-28T16:26:59.925Z,14.20
2022-09-28T16:29:40.214Z,14.10
2022-09-28T16:32:38.348Z,13.90
2022-09-28T16:35:19.136Z,13.70
2022-09-28T16:37:49.396Z,13.50
2022-09-28T16:40:17.559Z,13.20
2022-09-28T16:42:49.275Z,13.10
2022-09-28T16:45:22.360Z,12.90
2022-09-28T16:47:52.686Z,12.80
2022-09-28T16:50:21.568Z,12.70
2022-09-28T16:53:09.277Z,12.60
2022-09-28T16:55:41.164Z,12.40
2022-09-28T16:58:10.126Z,12.20
2022-09-28T17:00:39.680Z,12.00
2022-09-28T17:03:15.245Z,11.80
2022-09-28T17:05:43.899Z,11.70
2022-09-28T17:08:17.321Z,11.70
2022-09-28T17:11:13.570Z,11.80
2022-09-28T17:13:38.920Z,12.00
2022-09-28T17:16:13.215Z,11.60
2022-09-28T17:18:41.999Z,11.00
2022-09-28T17:21:15.703Z,10.60
2022-09-28T17:23:43.825Z,10.40
2022-09-28T17:26:18.982Z,10.20
2022-09-28T17:28:46.916Z,10.10
2022-09-28T17:31:17.732Z,10.10
2022-09-28T17:33:46.002Z,9.90
2022-09-28T17:36:15.812Z,9.80
2022-09-28T17:38:44.497Z,9.70
2022-09-28T17:41:18.033Z,9.50
2022-09-28T17:43:48.651Z,9.30
2022-09-28T17:46:28.285Z,9.20
2022-09-28T17:48:59.321Z,9.00
2022-09-28T17:51:28.416Z,8.80
2022-09-28T17:53:56.891Z,8.70
2022-09-28T17:56:27.542Z,8.60
2022-09-28T17:59:01.394Z,8.50
2022-09-28T18:01:34.370Z,8.40
2022-09-28T18:04:03.771Z,8.40
2022-09-28T18:06:33.525Z,8.30
2022-09-28T18:09:03.038Z,8.30
2022-09-28T18:11:31.363Z,8.20
2022-09-28T18:13:59.354Z,8.10
2022-09-28T18:16:28.740Z,8.10
2022-09-28T18:18:59.474Z,8.10
2022-09-28T18:21:27.448Z,8.20
2022-09-28T18:23:55.377Z,8.10
2022-09-28T18:26:23.286Z,8.10
2022-09-28T18:28:54.898Z,8.00
2022-09-28T18:31:23.071Z,7.90
2022-09-28T18:33:51.189Z,7.90
2022-09-28T18:36:20.667Z,7.90
2022-09-28T18:38:48.619Z,7.70
2022-09-28T18:41:16.865Z,7.50
2022-09-28T18:43:49.738Z,7.50
2022-09-28T18:46:18.750Z,7.60
2022-09-28T18:48:47.315Z,7.60
2022-09-28T18:51:17.099Z,7.60
2022-09-28T18:53:46.533Z,7.70
2022-09-28T18:56:18.162Z,7.70
2022-09-28T18:58:47.704Z,7.70
2022-09-28T19:01:32.816Z,7.70
2022-09-28T19:04:01.701Z,7.70
2022-09-28T19:06:30.161Z,7.60
2022-09-28T19:08:59.966Z,7.60
2022-09-28T19:11:29.853Z,7.60
2022-09-28T19:13:57.958Z,7.60
2022-09-28T19:16:28.473Z,7.70
2022-09-28T19:18:57.610Z,7.70
2022-09-28T19:21:26.797Z,7.80
2022-09-28T19:23:55.544Z,7.70
2022-09-28T19:26:27.396Z,7.70
2022-09-28T19:28:56.739Z,7.80
2022-09-28T19:31:25.257Z,7.80
2022-09-28T19:33:53.487Z,7.80
2022-09-28T19:36:23.484Z,7.80
2022-09-28T19:38:52.846Z,7.80
2022-09-28T19:41:39.192Z,7.80
2022-09-28T19:44:13.109Z,7.80
2022-09-28T19:46:41.608Z,7.80
2022-09-28T19:49:11.608Z,7.80
2022-09-28T19:52:01.678Z,7.80
2022-09-28T19:54:35.708Z,7.80
2022-09-28T19:57:07.715Z,7.80
2022-09-28T19:59:37.635Z,7.70
2022-09-28T20:02:08.248Z,7.60
2022-09-28T20:04:37.290Z,7.50
2022-09-28T20:07:05.758Z,7.40
2022-09-28T20:09:34.283Z,7.30
2022-09-28T20:12:05.841Z,7.10
2022-09-28T20:14:38.016Z,7.00
2022-09-28T20:17:09.070Z,7.00
2022-09-28T20:19:37.017Z,6.90
2022-09-28T20:22:05.248Z,6.70
2022-09-28T20:24:33.288Z,6.70
2022-09-28T20:27:02.530Z,6.40
2022-09-28T20:29:33.371Z,6.30
2022-09-28T20:32:03.778Z,6.20
2022-09-28T20:34:33.746Z,6.10
2022-09-28T20:37:02.358Z,6.00
2022-09-28T20:39:30.407Z,5.90
2022-09-28T20:41:58.328Z,5.80
2022-09-28T20:44:26.367Z,5.80
2022-09-28T20:46:54.350Z,5.70
2022-09-28T20:49:22.303Z,5.60
2022-09-28T20:51:51.653Z,5.60
2022-09-28T20:54:19.796Z,5.70
2022-09-28T20:56:48.272Z,5.50
2022-09-28T20:59:16.529Z,5.50
2022-09-28T21:01:44.926Z,5.40
2022-09-28T21:04:13.030Z,5.30
2022-09-28T21:06:42.859Z,5.30
2022-09-28T21:09:12.727Z,5.30
2022-09-28T21:11:41.700Z,5.30
2022-09-28T21:14:10.734Z,5.30
2022-09-28T21:16:39.384Z,5.40
2022-09-28T21:19:07.388Z,5.30
2022-09-28T21:21:35.619Z,5.40
2022-09-28T21:24:03.725Z,5.30
2022-09-28T21:26:33.340Z,5.30
2022-09-28T21:29:02.939Z,5.30
2022-09-28T21:31:33.860Z,5.20
2022-09-28T21:34:01.882Z,5.20
2022-09-28T21:36:29.837Z,5.10
2022-09-28T21:38:58.062Z,5.10
2022-09-28T21:41:26.687Z,5.00
2022-09-28T21:43:56.051Z,4.90
2022-09-28T21:46:24.754Z,4.70
2022-09-28T21:48:54.426Z,4.60
2022-09-28T21:51:22.679Z,4.60
2022-09-28T21:53:50.789Z,4.50
2022-09-28T21:56:18.778Z,4.50
2022-09-28T21:58:47.055Z,4.50
2022-09-28T22:01:19.482Z,4.50
2022-09-28T22:03:49.004Z,4.50
2022-09-28T22:06:18.312Z,4.60
2022-09-28T22:08:47.389Z,4.50
2022-09-28T22:11:17.938Z,4.40
2022-09-28T22:13:47.962Z,4.40
2022-09-28T22:16:18.802Z,4.50
2022-09-28T22:18:47.383Z,4.50
2022-09-28T22:21:16.809Z,4.30
2022-09-28T22:23:45.502Z,4.30
2022-09-28T22:26:19.129Z,4.30
2022-09-28T22:28:48.837Z,4.20
2022-09-28T22:31:19.935Z,4.20
2022-09-28T22:33:48.592Z,4.10
2022-09-28T22:36:17.146Z,4.00
2022-09-28T22:38:45.849Z,3.90
2022-09-28T22:41:15.750Z,3.90
2022-09-28T22:43:44.461Z,3.80
2022-09-28T22:46:14.109Z,3.80
2022-09-28T22:48:47.971Z,3.70
2022-09-28T22:51:16.567Z,3.80
2022-09-28T22:53:44.563Z,3.70
2022-09-28T22:56:17.642Z,3.70
2022-09-28T22:58:47.331Z,3.60
2022-09-28T23:01:18.495Z,3.50
2022-09-28T23:03:48.131Z,3.40
2022-09-28T23:06:17.727Z,3.40
2022-09-28T23:08:47.205Z,3.60
2022-09-28T23:11:15.356Z,3.60
2022-09-28T23:13:43.355Z,3.50
2022-09-28T23:16:13.220Z,3.60
2022-09-28T23:18:42.077Z,3.60
2022-09-28T23:21:15.303Z,3.60
2022-09-28T23:23:43.372Z,3.70
2022-09-28T23:26:14.606Z,3.80
2022-09-28T23:28:42.598Z,3.80
2022-09-28T23:31:12.637Z,3.80
2022-09-28T23:33:40.569Z,3.90
2022-09-28T23:36:09.749Z,3.90
2022-09-28T23:38:39.641Z,4.00
2022-09-28T23:41:08.185Z,4.20
2022-09-28T23:43:36.706Z,4.20
2022-09-28T23:46:05.422Z,4.20
2022-09-28T23:48:33.458Z,4.20
2022-09-28T23:51:01.628Z,4.30
2022-09-28T23:53:30.084Z,4.20
2022-09-28T23:55:59.637Z,4.20
2022-09-28T23:58:28.183Z,4.20
